ABW8891 USSS-USRR
Flight info
| Callsign | ABW8891 |
|---|---|
| Flight time | 1h 21m |
| Altitude | 33000 |
| Route | USSS DOSUM L992 NAMOL T376 UTORA A925 HMN L870 STELA USRR |
| Aircraft | B77L/H-SDE2E3FGHIJ5LORVWXY/LB1D1 |
Departure
| Time | 2026-05-08 15:17 |
|---|---|
| Airport | Koltsovo Airport (USSS) |
Arrival
| Time | 2026-05-08 16:38 |
|---|---|
| Airport | Surgut International Airport (USRR) |
| Time | Latitude | Longitude | Altitude | Speed | Heading |
|---|---|---|---|---|---|
| 2026-05-08 14:41 | 56.74774 | 60.80904 | 760 ft | 0 kts | 0° |
| 2026-05-08 15:09 | 56.74777 | 60.80904 | 760 ft | 1 kts | 0° |
| 2026-05-08 15:09 | 56.74799 | 60.80904 | 761 ft | 4 kts | 360° |
| 2026-05-08 15:09 | 56.74835 | 60.80867 | 761 ft | 8 kts | 309° |
| 2026-05-08 15:09 | 56.74847 | 60.80732 | 760 ft | 13 kts | 271° |
| 2026-05-08 15:10 | 56.74847 | 60.80524 | 759 ft | 18 kts | 270° |
| 2026-05-08 15:10 | 56.74848 | 60.80260 | 757 ft | 23 kts | 270° |
| 2026-05-08 15:10 | 56.74848 | 60.79935 | 755 ft | 27 kts | 270° |
| 2026-05-08 15:10 | 56.74849 | 60.79575 | 756 ft | 28 kts | 270° |
| 2026-05-08 15:11 | 56.74849 | 60.79390 | 756 ft | 10 kts | 270° |
| 2026-05-08 15:11 | 56.74844 | 60.79236 | 753 ft | 14 kts | 247° |
| 2026-05-08 15:11 | 56.74741 | 60.79195 | 749 ft | 18 kts | 180° |
| 2026-05-08 15:11 | 56.74660 | 60.79118 | 747 ft | 16 kts | 264° |
| 2026-05-08 15:12 | 56.74660 | 60.78903 | 746 ft | 18 kts | 270° |
| 2026-05-08 15:12 | 56.74661 | 60.78656 | 742 ft | 22 kts | 270° |
| 2026-05-08 15:12 | 56.74661 | 60.78365 | 741 ft | 23 kts | 270° |
| 2026-05-08 15:12 | 56.74647 | 60.78186 | 739 ft | 13 kts | 215° |
| 2026-05-08 15:13 | 56.74623 | 60.78169 | 739 ft | 0 kts | 192° |
| 2026-05-08 15:13 | 56.74606 | 60.78163 | 738 ft | 5 kts | 189° |
| 2026-05-08 15:13 | 56.74548 | 60.78158 | 738 ft | 10 kts | 181° |
| 2026-05-08 15:14 | 56.74456 | 60.78154 | 737 ft | 15 kts | 188° |
| 2026-05-08 15:14 | 56.74342 | 60.78070 | 737 ft | 19 kts | 205° |
| 2026-05-08 15:14 | 56.74245 | 60.78035 | 737 ft | 12 kts | 139° |
| 2026-05-08 15:14 | 56.74219 | 60.78202 | 737 ft | 14 kts | 95° |
| 2026-05-08 15:15 | 56.74217 | 60.78238 | 737 ft | 0 kts | 94° |
| 2026-05-08 15:16 | 56.74217 | 60.78240 | 737 ft | 1 kts | 94° |
| 2026-05-08 15:16 | 56.74210 | 60.78436 | 737 ft | 44 kts | 94° |
| 2026-05-08 15:16 | 56.74167 | 60.79530 | 744 ft | 125 kts | 94° |
| 2026-05-08 15:17 | 56.74089 | 60.81377 | 1072 ft | 159 kts | 95° |
| 2026-05-08 15:17 | 56.73987 | 60.83356 | 2021 ft | 160 kts | 95° |
| 2026-05-08 15:17 | 56.73907 | 60.85304 | 3000 ft | 159 kts | 95° |
| 2026-05-08 15:17 | 56.73830 | 60.87286 | 3868 ft | 164 kts | 96° |
| 2026-05-08 15:18 | 56.73751 | 60.89320 | 4732 ft | 167 kts | 97° |
| 2026-05-08 15:18 | 56.73670 | 60.91400 | 5572 ft | 171 kts | 97° |
| 2026-05-08 15:18 | 56.73586 | 60.93551 | 6398 ft | 175 kts | 98° |
| 2026-05-08 15:18 | 56.73500 | 60.95735 | 7192 ft | 179 kts | 98° |
| 2026-05-08 15:19 | 56.73411 | 60.98009 | 7976 ft | 184 kts | 98° |
| 2026-05-08 15:19 | 56.73395 | 61.00331 | 8590 ft | 191 kts | 82° |
| 2026-05-08 15:19 | 56.74023 | 61.02568 | 8791 ft | 215 kts | 50° |
| 2026-05-08 15:19 | 56.75342 | 61.04079 | 8946 ft | 236 kts | 22° |
| 2026-05-08 15:20 | 56.76940 | 61.05172 | 9237 ft | 255 kts | 20° |
| 2026-05-08 15:20 | 56.78663 | 61.06314 | 9574 ft | 272 kts | 19° |
| 2026-05-08 15:20 | 56.80477 | 61.07515 | 9871 ft | 289 kts | 19° |
| 2026-05-08 15:20 | 56.82415 | 61.08798 | 10131 ft | 306 kts | 19° |
| 2026-05-08 15:21 | 56.84462 | 61.10155 | 10372 ft | 322 kts | 19° |
| 2026-05-08 15:21 | 56.86628 | 61.11591 | 10596 ft | 338 kts | 19° |
| 2026-05-08 15:21 | 56.88887 | 61.13092 | 10824 ft | 349 kts | 18° |
| 2026-05-08 15:21 | 56.91177 | 61.14617 | 10878 ft | 353 kts | 18° |
| 2026-05-08 15:22 | 56.93472 | 61.16148 | 10881 ft | 353 kts | 18° |
| 2026-05-08 15:22 | 56.95773 | 61.17685 | 10881 ft | 353 kts | 18° |
| 2026-05-08 15:22 | 56.98074 | 61.19223 | 10881 ft | 354 kts | 18° |
| 2026-05-08 15:22 | 57.00375 | 61.20764 | 10881 ft | 355 kts | 18° |
| 2026-05-08 15:23 | 57.02697 | 61.22321 | 10953 ft | 363 kts | 18° |
| 2026-05-08 15:23 | 57.05067 | 61.23912 | 11631 ft | 361 kts | 18° |
| 2026-05-08 15:23 | 57.07408 | 61.25487 | 12375 ft | 360 kts | 18° |
| 2026-05-08 15:23 | 57.09777 | 61.27081 | 12961 ft | 366 kts | 18° |
| 2026-05-08 15:24 | 57.12157 | 61.28684 | 13567 ft | 371 kts | 18° |
| 2026-05-08 15:24 | 57.14605 | 61.30336 | 14262 ft | 375 kts | 18° |
| 2026-05-08 15:24 | 57.17039 | 61.31981 | 15022 ft | 378 kts | 17° |
| 2026-05-08 15:24 | 57.19489 | 61.33640 | 15799 ft | 381 kts | 17° |
| 2026-05-08 15:25 | 57.21994 | 61.35337 | 16555 ft | 385 kts | 17° |
| 2026-05-08 15:25 | 57.24513 | 61.37048 | 17291 ft | 389 kts | 17° |
| 2026-05-08 15:25 | 57.27058 | 61.38779 | 18020 ft | 393 kts | 17° |
| 2026-05-08 15:25 | 57.29551 | 61.40840 | 18715 ft | 400 kts | 26° |
| 2026-05-08 15:26 | 57.31937 | 61.43452 | 19403 ft | 404 kts | 29° |
| 2026-05-08 15:26 | 57.34346 | 61.46175 | 20095 ft | 409 kts | 29° |
| 2026-05-08 15:26 | 57.36668 | 61.48805 | 20754 ft | 413 kts | 29° |
| 2026-05-08 15:26 | 57.39035 | 61.51492 | 21410 ft | 417 kts | 29° |
| 2026-05-08 15:27 | 57.41417 | 61.54198 | 22049 ft | 421 kts | 29° |
| 2026-05-08 15:27 | 57.43910 | 61.57034 | 22708 ft | 425 kts | 29° |
| 2026-05-08 15:27 | 57.46414 | 61.59887 | 23355 ft | 429 kts | 29° |
| 2026-05-08 15:27 | 57.48952 | 61.62782 | 23992 ft | 433 kts | 29° |
| 2026-05-08 15:28 | 57.51411 | 61.65589 | 24598 ft | 437 kts | 30° |
| 2026-05-08 15:28 | 57.54071 | 61.68627 | 25220 ft | 441 kts | 30° |
| 2026-05-08 15:28 | 57.56650 | 61.71579 | 25805 ft | 445 kts | 30° |
| 2026-05-08 15:28 | 57.59311 | 61.74628 | 26396 ft | 449 kts | 30° |
| 2026-05-08 15:29 | 57.61937 | 61.77648 | 26964 ft | 453 kts | 31° |
| 2026-05-08 15:29 | 57.64451 | 61.81149 | 27490 ft | 459 kts | 40° |
| 2026-05-08 15:29 | 57.66791 | 61.85271 | 28039 ft | 463 kts | 43° |
| 2026-05-08 15:29 | 57.69068 | 61.89424 | 28582 ft | 467 kts | 43° |
| 2026-05-08 15:30 | 57.71373 | 61.93642 | 29116 ft | 470 kts | 43° |
| 2026-05-08 15:30 | 57.73693 | 61.97895 | 29769 ft | 470 kts | 43° |
| 2026-05-08 15:30 | 57.76001 | 62.02132 | 30521 ft | 467 kts | 43° |
| 2026-05-08 15:30 | 57.78327 | 62.06410 | 31236 ft | 465 kts | 43° |
| 2026-05-08 15:31 | 57.80607 | 62.10611 | 31902 ft | 464 kts | 43° |
| 2026-05-08 15:31 | 57.82899 | 62.14840 | 32572 ft | 463 kts | 43° |
| 2026-05-08 15:31 | 57.85192 | 62.19076 | 32926 ft | 467 kts | 43° |
| 2026-05-08 15:31 | 57.87506 | 62.23363 | 32956 ft | 465 kts | 43° |
| 2026-05-08 15:32 | 57.92036 | 62.31775 | 32960 ft | 463 kts | 43° |
| 2026-05-08 15:32 | 57.96507 | 62.40107 | 32961 ft | 463 kts | 43° |
| 2026-05-08 15:33 | 58.01086 | 62.48671 | 32961 ft | 462 kts | 43° |
| 2026-05-08 15:33 | 58.05610 | 62.57167 | 32962 ft | 463 kts | 43° |
| 2026-05-08 15:34 | 58.10152 | 62.65729 | 32962 ft | 463 kts | 44° |
| 2026-05-08 15:34 | 58.14705 | 62.74342 | 32953 ft | 462 kts | 44° |
| 2026-05-08 15:35 | 58.19240 | 62.82956 | 32954 ft | 463 kts | 44° |
| 2026-05-08 15:35 | 58.23760 | 62.91573 | 32956 ft | 463 kts | 44° |
| 2026-05-08 15:36 | 58.27535 | 62.98796 | 32969 ft | 465 kts | 44° |
| 2026-05-08 15:36 | 58.32880 | 63.09061 | 32988 ft | 468 kts | 44° |
| 2026-05-08 15:37 | 58.37430 | 63.17838 | 32999 ft | 469 kts | 44° |
| 2026-05-08 15:37 | 58.42030 | 63.26747 | 33000 ft | 469 kts | 44° |
| 2026-05-08 15:38 | 58.46569 | 63.35571 | 33000 ft | 469 kts | 44° |
| 2026-05-08 15:38 | 58.51156 | 63.44524 | 33001 ft | 468 kts | 44° |
| 2026-05-08 15:39 | 58.55695 | 63.53418 | 33002 ft | 469 kts | 44° |
| 2026-05-08 15:39 | 58.60232 | 63.62344 | 33003 ft | 469 kts | 44° |
| 2026-05-08 15:40 | 58.64785 | 63.71338 | 32999 ft | 469 kts | 45° |
| 2026-05-08 15:40 | 58.69297 | 63.80285 | 32999 ft | 468 kts | 45° |
| 2026-05-08 15:41 | 58.73825 | 63.89294 | 33000 ft | 469 kts | 45° |
| 2026-05-08 15:41 | 58.78364 | 63.98351 | 33001 ft | 469 kts | 45° |
| 2026-05-08 15:42 | 58.82845 | 64.07331 | 33002 ft | 468 kts | 45° |
| 2026-05-08 15:42 | 58.87362 | 64.16417 | 33002 ft | 468 kts | 45° |
| 2026-05-08 15:43 | 58.91850 | 64.25481 | 33003 ft | 464 kts | 46° |
| 2026-05-08 15:43 | 58.96267 | 64.34438 | 33001 ft | 456 kts | 47° |
| 2026-05-08 15:44 | 59.00587 | 64.43233 | 32982 ft | 448 kts | 47° |
| 2026-05-08 15:44 | 59.04830 | 64.51905 | 32981 ft | 441 kts | 47° |
| 2026-05-08 15:45 | 59.09040 | 64.60545 | 32981 ft | 443 kts | 47° |
| 2026-05-08 15:45 | 59.13230 | 64.69174 | 32976 ft | 442 kts | 48° |
| 2026-05-08 15:46 | 59.17441 | 64.77880 | 32976 ft | 442 kts | 48° |
| 2026-05-08 15:46 | 59.21644 | 64.86603 | 32976 ft | 444 kts | 49° |
| 2026-05-08 15:47 | 59.25901 | 64.95474 | 32976 ft | 447 kts | 49° |
| 2026-05-08 15:47 | 59.30154 | 65.04370 | 32976 ft | 450 kts | 49° |
| 2026-05-08 15:48 | 59.36548 | 65.17810 | 32977 ft | 450 kts | 49° |
| 2026-05-08 15:49 | 59.40826 | 65.26846 | 32977 ft | 450 kts | 49° |
| 2026-05-08 15:49 | 59.45076 | 65.35860 | 32977 ft | 450 kts | 49° |
| 2026-05-08 15:50 | 59.49313 | 65.44889 | 32978 ft | 450 kts | 49° |
| 2026-05-08 15:50 | 59.53564 | 65.53986 | 32978 ft | 449 kts | 49° |
| 2026-05-08 15:51 | 59.57788 | 65.63061 | 32979 ft | 450 kts | 49° |
| 2026-05-08 15:51 | 59.61985 | 65.72114 | 32979 ft | 449 kts | 50° |
| 2026-05-08 15:52 | 59.66206 | 65.81255 | 32979 ft | 450 kts | 50° |
| 2026-05-08 15:52 | 59.70418 | 65.90412 | 32979 ft | 449 kts | 50° |
| 2026-05-08 15:53 | 59.74559 | 65.99626 | 32980 ft | 449 kts | 51° |
| 2026-05-08 15:53 | 59.78670 | 66.09008 | 32980 ft | 449 kts | 51° |
| 2026-05-08 15:54 | 59.82750 | 66.18341 | 32981 ft | 449 kts | 51° |
| 2026-05-08 15:54 | 59.86817 | 66.27676 | 32986 ft | 449 kts | 51° |
| 2026-05-08 15:55 | 59.90888 | 66.37054 | 33034 ft | 448 kts | 51° |
| 2026-05-08 15:55 | 59.96951 | 66.51090 | 33106 ft | 448 kts | 51° |
| 2026-05-08 15:56 | 60.01003 | 66.60517 | 33110 ft | 448 kts | 51° |
| 2026-05-08 15:56 | 60.05020 | 66.69907 | 33109 ft | 447 kts | 52° |
| 2026-05-08 15:57 | 60.08985 | 66.79227 | 33110 ft | 447 kts | 52° |
| 2026-05-08 15:57 | 60.12946 | 66.88576 | 33102 ft | 447 kts | 52° |
| 2026-05-08 15:58 | 60.16912 | 66.97976 | 33102 ft | 447 kts | 52° |
| 2026-05-08 15:58 | 60.20793 | 67.07210 | 33102 ft | 450 kts | 53° |
| 2026-05-08 15:59 | 60.24759 | 67.16683 | 33102 ft | 452 kts | 53° |
| 2026-05-08 15:59 | 60.28798 | 67.26375 | 33102 ft | 453 kts | 53° |
| 2026-05-08 16:00 | 60.32874 | 67.36193 | 33103 ft | 453 kts | 53° |
| 2026-05-08 16:00 | 60.36838 | 67.45783 | 33104 ft | 453 kts | 53° |
| 2026-05-08 16:01 | 60.40868 | 67.55574 | 33104 ft | 453 kts | 53° |
| 2026-05-08 16:01 | 60.44861 | 67.65316 | 33105 ft | 453 kts | 54° |
| 2026-05-08 16:02 | 60.48885 | 67.75175 | 33104 ft | 453 kts | 54° |
| 2026-05-08 16:02 | 60.52773 | 67.84743 | 33105 ft | 453 kts | 54° |
| 2026-05-08 16:03 | 60.56627 | 67.94266 | 33105 ft | 453 kts | 54° |
| 2026-05-08 16:03 | 60.60559 | 68.04022 | 33106 ft | 452 kts | 54° |
| 2026-05-08 16:04 | 60.64244 | 68.13203 | 33106 ft | 452 kts | 54° |
| 2026-05-08 16:04 | 60.67889 | 68.22321 | 33107 ft | 453 kts | 54° |
| 2026-05-08 16:05 | 60.71682 | 68.31846 | 33108 ft | 453 kts | 54° |
| 2026-05-08 16:05 | 60.75565 | 68.41640 | 33108 ft | 452 kts | 54° |
| 2026-05-08 16:06 | 60.79549 | 68.51716 | 33109 ft | 452 kts | 54° |
| 2026-05-08 16:06 | 60.83442 | 68.61601 | 33109 ft | 453 kts | 54° |
| 2026-05-08 16:07 | 60.87182 | 68.71138 | 32703 ft | 448 kts | 55° |
| 2026-05-08 16:07 | 60.89024 | 68.75850 | 32082 ft | 449 kts | 55° |
| 2026-05-08 16:07 | 60.90878 | 68.80604 | 31524 ft | 448 kts | 55° |
| 2026-05-08 16:08 | 60.92804 | 68.85552 | 30936 ft | 447 kts | 55° |
| 2026-05-08 16:08 | 60.94675 | 68.90368 | 30528 ft | 442 kts | 55° |
| 2026-05-08 16:08 | 60.96531 | 68.95152 | 30115 ft | 438 kts | 55° |
| 2026-05-08 16:08 | 60.98260 | 68.99622 | 29708 ft | 434 kts | 55° |
| 2026-05-08 16:09 | 60.99979 | 69.04074 | 29299 ft | 431 kts | 55° |
| 2026-05-08 16:09 | 61.01151 | 69.07262 | 29010 ft | 427 kts | 59° |
| 2026-05-08 16:09 | 61.03002 | 69.14050 | 28448 ft | 417 kts | 71° |
| 2026-05-08 16:09 | 61.03967 | 69.19509 | 28051 ft | 408 kts | 79° |
| 2026-05-08 16:10 | 61.04608 | 69.24807 | 27677 ft | 404 kts | 82° |
| 2026-05-08 16:10 | 61.05230 | 69.30301 | 27285 ft | 415 kts | 82° |
| 2026-05-08 16:10 | 61.05853 | 69.35863 | 26874 ft | 415 kts | 82° |
| 2026-05-08 16:10 | 61.06473 | 69.41433 | 26460 ft | 412 kts | 82° |
| 2026-05-08 16:11 | 61.07075 | 69.46878 | 26054 ft | 408 kts | 82° |
| 2026-05-08 16:11 | 61.07705 | 69.52607 | 25628 ft | 404 kts | 82° |
| 2026-05-08 16:11 | 61.08321 | 69.58245 | 25205 ft | 400 kts | 82° |
| 2026-05-08 16:11 | 61.08920 | 69.63770 | 24784 ft | 397 kts | 82° |
| 2026-05-08 16:12 | 61.09523 | 69.69349 | 24359 ft | 394 kts | 83° |
| 2026-05-08 16:12 | 61.10113 | 69.74846 | 23935 ft | 391 kts | 83° |
| 2026-05-08 16:12 | 61.10679 | 69.80127 | 23514 ft | 389 kts | 83° |
| 2026-05-08 16:12 | 61.11257 | 69.85558 | 23093 ft | 386 kts | 83° |
| 2026-05-08 16:13 | 61.11826 | 69.90920 | 22678 ft | 383 kts | 83° |
| 2026-05-08 16:13 | 61.12367 | 69.96041 | 22277 ft | 381 kts | 83° |
| 2026-05-08 16:13 | 61.12928 | 70.01373 | 21862 ft | 378 kts | 83° |
| 2026-05-08 16:13 | 61.13467 | 70.06589 | 21455 ft | 375 kts | 83° |
| 2026-05-08 16:14 | 61.13985 | 70.11844 | 21042 ft | 373 kts | 83° |
| 2026-05-08 16:14 | 61.14497 | 70.17091 | 20627 ft | 370 kts | 83° |
| 2026-05-08 16:14 | 61.15004 | 70.22286 | 20216 ft | 367 kts | 83° |
| 2026-05-08 16:14 | 61.15504 | 70.27439 | 19809 ft | 365 kts | 83° |
| 2026-05-08 16:15 | 61.15990 | 70.32458 | 19405 ft | 363 kts | 83° |
| 2026-05-08 16:15 | 61.16474 | 70.37470 | 19000 ft | 360 kts | 83° |
| 2026-05-08 16:15 | 61.16962 | 70.42543 | 18594 ft | 357 kts | 83° |
| 2026-05-08 16:15 | 61.17440 | 70.47527 | 18193 ft | 354 kts | 83° |
| 2026-05-08 16:16 | 61.17919 | 70.52551 | 17786 ft | 352 kts | 83° |
| 2026-05-08 16:16 | 61.18374 | 70.57343 | 17398 ft | 350 kts | 83° |
| 2026-05-08 16:16 | 61.18830 | 70.62163 | 17008 ft | 348 kts | 83° |
| 2026-05-08 16:16 | 61.19277 | 70.66901 | 16619 ft | 345 kts | 84° |
| 2026-05-08 16:17 | 61.19737 | 70.71806 | 16217 ft | 343 kts | 84° |
| 2026-05-08 16:17 | 61.20038 | 70.75017 | 15955 ft | 341 kts | 84° |
| 2026-05-08 16:17 | 61.20639 | 70.81470 | 15425 ft | 338 kts | 84° |
| 2026-05-08 16:17 | 61.21075 | 70.86167 | 15036 ft | 337 kts | 84° |
| 2026-05-08 16:18 | 61.21514 | 70.90929 | 14642 ft | 335 kts | 84° |
| 2026-05-08 16:18 | 61.21943 | 70.95657 | 14251 ft | 332 kts | 85° |
| 2026-05-08 16:18 | 61.22335 | 71.00375 | 13856 ft | 331 kts | 85° |
| 2026-05-08 16:18 | 61.22719 | 71.05061 | 13466 ft | 329 kts | 85° |
| 2026-05-08 16:19 | 61.23101 | 71.09712 | 13077 ft | 326 kts | 85° |
| 2026-05-08 16:19 | 61.23479 | 71.14294 | 12693 ft | 324 kts | 85° |
| 2026-05-08 16:19 | 61.23856 | 71.18887 | 12309 ft | 322 kts | 85° |
| 2026-05-08 16:19 | 61.24224 | 71.23386 | 11933 ft | 320 kts | 85° |
| 2026-05-08 16:20 | 61.24594 | 71.27926 | 11548 ft | 315 kts | 85° |
| 2026-05-08 16:20 | 61.24955 | 71.32367 | 11172 ft | 311 kts | 85° |
| 2026-05-08 16:20 | 61.25312 | 71.36791 | 10795 ft | 307 kts | 85° |
| 2026-05-08 16:20 | 61.25658 | 71.41097 | 10434 ft | 302 kts | 85° |
| 2026-05-08 16:21 | 61.25999 | 71.45324 | 10315 ft | 285 kts | 85° |
| 2026-05-08 16:21 | 61.26312 | 71.49223 | 10259 ft | 269 kts | 85° |
| 2026-05-08 16:21 | 61.26607 | 71.52937 | 10176 ft | 256 kts | 85° |
| 2026-05-08 16:21 | 61.26889 | 71.56539 | 9970 ft | 262 kts | 85° |
| 2026-05-08 16:22 | 61.27181 | 71.60286 | 9650 ft | 264 kts | 85° |
| 2026-05-08 16:22 | 61.27378 | 71.62779 | 9448 ft | 262 kts | 85° |
| 2026-05-08 16:22 | 61.27752 | 71.67535 | 9091 ft | 259 kts | 85° |
| 2026-05-08 16:22 | 61.28047 | 71.71317 | 8814 ft | 257 kts | 85° |
| 2026-05-08 16:23 | 61.28331 | 71.74962 | 8546 ft | 255 kts | 85° |
| 2026-05-08 16:23 | 61.28652 | 71.78587 | 8276 ft | 254 kts | 82° |
| 2026-05-08 16:23 | 61.28998 | 71.82144 | 8009 ft | 252 kts | 82° |
| 2026-05-08 16:23 | 61.29339 | 71.85729 | 7740 ft | 251 kts | 82° |
| 2026-05-08 16:24 | 61.29673 | 71.89291 | 7473 ft | 249 kts | 82° |
| 2026-05-08 16:24 | 61.29999 | 71.92801 | 7210 ft | 248 kts | 82° |
| 2026-05-08 16:24 | 61.30323 | 71.96290 | 6945 ft | 246 kts | 82° |
| 2026-05-08 16:24 | 61.30642 | 71.99742 | 6683 ft | 245 kts | 81° |
| 2026-05-08 16:25 | 61.30961 | 72.03200 | 6420 ft | 244 kts | 81° |
| 2026-05-08 16:25 | 61.31271 | 72.06579 | 6167 ft | 242 kts | 81° |
| 2026-05-08 16:25 | 61.31464 | 72.09973 | 6086 ft | 241 kts | 87° |
| 2026-05-08 16:25 | 61.31583 | 72.13422 | 6078 ft | 241 kts | 87° |
| 2026-05-08 16:26 | 61.31696 | 72.16878 | 6001 ft | 244 kts | 87° |
| 2026-05-08 16:26 | 61.31811 | 72.20351 | 5674 ft | 244 kts | 87° |
| 2026-05-08 16:26 | 61.31927 | 72.23845 | 5451 ft | 238 kts | 86° |
| 2026-05-08 16:26 | 61.32040 | 72.27240 | 5243 ft | 240 kts | 86° |
| 2026-05-08 16:27 | 61.32151 | 72.30640 | 4952 ft | 237 kts | 86° |
| 2026-05-08 16:27 | 61.32259 | 72.33974 | 4660 ft | 235 kts | 86° |
| 2026-05-08 16:27 | 61.32369 | 72.37382 | 4359 ft | 234 kts | 86° |
| 2026-05-08 16:27 | 61.32475 | 72.40710 | 4062 ft | 233 kts | 85° |
| 2026-05-08 16:28 | 61.32579 | 72.43990 | 3661 ft | 237 kts | 85° |
| 2026-05-08 16:28 | 61.32683 | 72.47290 | 3228 ft | 241 kts | 85° |
| 2026-05-08 16:28 | 61.32793 | 72.50792 | 2775 ft | 245 kts | 85° |
| 2026-05-08 16:28 | 61.32901 | 72.54291 | 2329 ft | 249 kts | 85° |
| 2026-05-08 16:29 | 61.33008 | 72.57774 | 2046 ft | 245 kts | 85° |
| 2026-05-08 16:29 | 61.33112 | 72.61201 | 2062 ft | 229 kts | 84° |
| 2026-05-08 16:29 | 61.33207 | 72.64333 | 2066 ft | 219 kts | 84° |
| 2026-05-08 16:29 | 61.33298 | 72.67371 | 2065 ft | 210 kts | 85° |
| 2026-05-08 16:30 | 61.33387 | 72.70367 | 1966 ft | 206 kts | 85° |
| 2026-05-08 16:30 | 61.33476 | 72.73356 | 1854 ft | 202 kts | 85° |
| 2026-05-08 16:30 | 61.33559 | 72.76205 | 1838 ft | 194 kts | 85° |
| 2026-05-08 16:30 | 61.33639 | 72.78950 | 1836 ft | 187 kts | 85° |
| 2026-05-08 16:31 | 61.33727 | 72.81565 | 1838 ft | 181 kts | 80° |
| 2026-05-08 16:31 | 61.33958 | 72.84144 | 1842 ft | 180 kts | 81° |
| 2026-05-08 16:31 | 61.34071 | 72.86671 | 1836 ft | 172 kts | 85° |
| 2026-05-08 16:31 | 61.34114 | 72.89109 | 1837 ft | 165 kts | 87° |
| 2026-05-08 16:32 | 61.34137 | 72.91449 | 1839 ft | 163 kts | 87° |
| 2026-05-08 16:32 | 61.34155 | 72.93855 | 1839 ft | 164 kts | 87° |
| 2026-05-08 16:32 | 61.34171 | 72.96204 | 1839 ft | 164 kts | 87° |
| 2026-05-08 16:32 | 61.34187 | 72.98592 | 1839 ft | 164 kts | 87° |
| 2026-05-08 16:33 | 61.34202 | 73.00945 | 1839 ft | 164 kts | 87° |
| 2026-05-08 16:33 | 61.34217 | 73.03326 | 1839 ft | 164 kts | 87° |
| 2026-05-08 16:33 | 61.34232 | 73.05714 | 1839 ft | 164 kts | 87° |
| 2026-05-08 16:33 | 61.34246 | 73.08122 | 1839 ft | 164 kts | 87° |
| 2026-05-08 16:34 | 61.34259 | 73.10462 | 1839 ft | 164 kts | 87° |
| 2026-05-08 16:34 | 61.34271 | 73.12770 | 1841 ft | 150 kts | 87° |
| 2026-05-08 16:34 | 61.34283 | 73.14755 | 1828 ft | 133 kts | 87° |
| 2026-05-08 16:34 | 61.34293 | 73.16619 | 1838 ft | 123 kts | 87° |
| 2026-05-08 16:35 | 61.34302 | 73.18362 | 1836 ft | 120 kts | 87° |
| 2026-05-08 16:35 | 61.34310 | 73.20123 | 1814 ft | 121 kts | 87° |
| 2026-05-08 16:35 | 61.34317 | 73.21861 | 1654 ft | 120 kts | 87° |
| 2026-05-08 16:35 | 61.34325 | 73.23608 | 1499 ft | 120 kts | 87° |
| 2026-05-08 16:36 | 61.34332 | 73.25307 | 1348 ft | 119 kts | 87° |
| 2026-05-08 16:36 | 61.34339 | 73.27037 | 1190 ft | 119 kts | 87° |
| 2026-05-08 16:36 | 61.34346 | 73.28742 | 1034 ft | 119 kts | 86° |
| 2026-05-08 16:36 | 61.34352 | 73.30447 | 876 ft | 120 kts | 86° |
| 2026-05-08 16:37 | 61.34359 | 73.32159 | 715 ft | 120 kts | 86° |
| 2026-05-08 16:37 | 61.34354 | 73.33868 | 544 ft | 120 kts | 88° |
| 2026-05-08 16:37 | 61.34363 | 73.35591 | 377 ft | 120 kts | 87° |
| 2026-05-08 16:37 | 61.34371 | 73.37316 | 245 ft | 121 kts | 87° |
| 2026-05-08 16:38 | 61.34382 | 73.39012 | 185 ft | 106 kts | 88° |
| 2026-05-08 16:38 | 61.34387 | 73.40255 | 199 ft | 69 kts | 89° |
| 2026-05-08 16:38 | 61.34389 | 73.41001 | 202 ft | 33 kts | 89° |
| 2026-05-08 16:38 | 61.34391 | 73.41475 | 199 ft | 33 kts | 88° |
| 2026-05-08 16:39 | 61.34392 | 73.41956 | 194 ft | 33 kts | 88° |
| 2026-05-08 16:39 | 61.34394 | 73.42332 | 190 ft | 33 kts | 89° |
| 2026-05-08 16:39 | 61.34372 | 73.42635 | 189 ft | 17 kts | 158° |
| 2026-05-08 16:39 | 61.34280 | 73.42554 | 189 ft | 10 kts | 211° |
| 2026-05-08 16:40 | 61.34208 | 73.42450 | 188 ft | 14 kts | 229° |
| 2026-05-08 16:40 | 61.34185 | 73.42244 | 190 ft | 16 kts | 269° |
| 2026-05-08 16:40 | 61.34185 | 73.42089 | 191 ft | 10 kts | 269° |
| 2026-05-08 16:40 | 61.34184 | 73.41934 | 193 ft | 12 kts | 269° |
| 2026-05-08 16:41 | 61.34183 | 73.41752 | 195 ft | 13 kts | 269° |
| 2026-05-08 16:41 | 61.34182 | 73.41553 | 197 ft | 15 kts | 269° |
| 2026-05-08 16:41 | 61.34181 | 73.41333 | 197 ft | 17 kts | 269° |
| 2026-05-08 16:42 | 61.34179 | 73.40808 | 199 ft | 9 kts | 269° |
| 2026-05-08 16:42 | 61.34178 | 73.40630 | 197 ft | 14 kts | 269° |
| 2026-05-08 16:42 | 61.34177 | 73.40454 | 197 ft | 5 kts | 269° |
| 2026-05-08 16:42 | 61.34168 | 73.40360 | 196 ft | 5 kts | 241° |
| 2026-05-08 16:43 | 61.34122 | 73.40346 | 195 ft | 0 kts | 180° |